Time;durP1;ratioP1;P1;durP2;ratioP2;P2;SDS_P1;SDS_P2;PMS_P1;PMS_P2;Temp;Humidity;BMP_temperature;BMP_pressure;BME280_temperature;BME280_humidity;BME280_pressure;Samples;Min_cycle;Max_cycle;Signal;HPM_P1;HPM_P2
2021/05/10 00:00:35;;;;;;;2.97;1.47;;;;;;;14.87;40.87;99026.50;5018028;28;20231;-83
2021/05/10 00:03:02;;;;;;;2.30;1.90;;;;;;;14.85;41.32;99001.66;5020275;28;20242;-80
2021/05/10 00:05:28;;;;;;;2.40;1.53;;;;;;;14.91;40.77;99008.72;5037658;28;20238;-81
2021/05/10 00:07:55;;;;;;;4.30;1.50;;;;;;;14.96;40.57;99014.13;5036831;28;20230;-82
2021/05/10 00:10:21;;;;;;;2.40;1.40;;;;;;;14.88;41.11;99003.81;5034818;28;20238;-80
2021/05/10 00:12:49;;;;;;;3.00;1.40;;;;;;;14.93;40.66;99017.31;5019289;28;20264;-80
2021/05/10 00:15:16;;;;;;;1.80;1.43;;;;;;;14.91;40.57;99003.31;5037414;28;20231;-79
2021/05/10 00:17:42;;;;;;;1.83;1.60;;;;;;;14.83;41.04;99008.41;5003121;28;20234;-78
2021/05/10 00:20:09;;;;;;;2.00;1.80;;;;;;;14.82;41.04;99028.34;5019105;28;20238;-80
2021/05/10 00:22:35;;;;;;;1.67;1.40;;;;;;;14.75;41.01;99003.47;5017923;28;20226;-79
2021/05/10 00:25:02;;;;;;;2.27;1.33;;;;;;;14.78;41.03;99019.16;5017855;28;20230;-79
2021/05/10 00:27:30;;;;;;;3.87;1.70;;;;;;;14.71;41.18;99008.59;5017212;28;20226;-83
2021/05/10 00:29:56;;;;;;;2.37;1.80;;;;;;;14.63;41.08;99006.41;5001485;28;20221;-81
2021/05/10 00:32:22;;;;;;;2.00;1.40;;;;;;;14.60;41.67;98998.84;5017107;28;20626;-80
2021/05/10 00:34:55;;;;;;;2.33;1.67;;;;;;;14.57;41.49;99003.91;5033948;28;20230;-82
2021/05/10 00:37:21;;;;;;;2.87;1.47;;;;;;;14.64;41.37;98985.63;5033827;28;20713;-82
2021/05/10 00:39:47;;;;;;;1.50;1.40;;;;;;;14.45;41.99;98971.78;5017295;28;20223;-81
2021/05/10 00:42:14;;;;;;;2.37;1.50;;;;;;;14.45;41.86;98967.22;5016868;28;20680;-81
2021/05/10 00:44:40;;;;;;;3.53;1.60;;;;;;;14.43;42.00;98963.94;5017449;28;20223;-79
2021/05/10 00:47:06;;;;;;;2.37;1.60;;;;;;;14.43;42.20;98966.66;5001881;28;20643;-80
2021/05/10 00:49:32;;;;;;;2.20;1.47;;;;;;;14.40;42.10;98961.78;5002115;28;20229;-80
2021/05/10 00:51:58;;;;;;;2.47;1.53;;;;;;;14.42;42.07;98958.81;5035556;28;20534;-79
2021/05/10 00:54:26;;;;;;;3.80;1.70;;;;;;;14.52;41.88;98956.19;5036666;28;20689;-81
2021/05/10 00:56:52;;;;;;;2.67;1.50;;;;;;;14.43;42.14;98950.47;5004368;28;20248;-81
2021/05/10 00:59:18;;;;;;;2.10;1.60;;;;;;;14.37;42.19;98942.63;5023890;28;20236;-80
2021/05/10 01:01:49;;;;;;;2.60;1.60;;;;;;;14.46;42.10;98949.16;5041394;28;20240;-79
2021/05/10 01:04:16;;;;;;;3.50;1.80;;;;;;;14.38;42.46;98949.63;5039263;28;20256;-79
2021/05/10 01:06:42;;;;;;;2.53;1.67;;;;;;;14.37;42.03;98954.19;5036915;28;20222;-79
2021/05/10 01:09:09;;;;;;;3.00;1.30;;;;;;;14.30;42.51;98950.91;5038358;28;20634;-79
2021/05/10 01:11:35;;;;;;;1.60;1.50;;;;;;;14.30;42.63;98942.81;5019775;28;20226;-80
2021/05/10 01:14:02;;;;;;;2.50;1.70;;;;;;;14.24;43.22;98945.72;5043924;28;20850;-81
2021/05/10 01:16:28;;;;;;;1.73;1.50;;;;;;;14.27;43.27;98970.31;5053506;28;20221;-82
2021/05/10 01:18:55;;;;;;;2.10;1.80;;;;;;;14.19;43.19;98951.09;5036630;28;20287;-81
2021/05/10 01:21:21;;;;;;;1.67;1.23;;;;;;;14.18;44.00;98971.84;5037522;28;20221;-79
2021/05/10 01:23:48;;;;;;;2.43;1.70;;;;;;;14.28;43.79;98960.31;5022295;28;20233;-79
2021/05/10 01:26:15;;;;;;;1.63;1.53;;;;;;;14.46;43.55;98949.16;5043935;28;20234;-80
2021/05/10 01:28:41;;;;;;;2.53;1.47;;;;;;;14.44;43.71;98945.91;5043850;28;20248;-79
2021/05/10 01:31:09;;;;;;;3.07;1.70;;;;;;;14.57;43.74;98961.59;5041295;28;20225;-81
2021/05/10 01:33:35;;;;;;;1.87;1.50;;;;;;;14.51;43.70;98949.19;5057973;28;20532;-80
2021/05/10 01:36:02;;;;;;;2.90;1.50;;;;;;;14.59;43.28;98945.19;5041194;28;20226;-81
2021/05/10 01:38:29;;;;;;;2.00;1.43;;;;;;;14.75;43.47;98952.25;5024366;28;20565;-80
2021/05/10 01:40:55;;;;;;;2.47;1.40;;;;;;;14.72;43.59;98945.50;5024521;28;20237;-81
2021/05/10 01:43:22;;;;;;;1.97;1.50;;;;;;;14.70;43.42;98942.25;5040255;28;20244;-82
2021/05/10 01:45:49;;;;;;;1.60;1.40;;;;;;;14.86;42.97;98929.66;5041332;28;20222;-81
2021/05/10 01:48:16;;;;;;;2.60;1.53;;;;;;;14.92;42.91;98923.22;5027029;28;20230;-81
2021/05/10 01:50:45;;;;;;;2.43;1.40;;;;;;;14.91;43.42;98932.38;5061769;28;20664;-80
2021/05/10 01:53:14;;;;;;;2.60;1.60;;;;;;;14.85;43.86;98928.03;5043893;28;20241;-80
2021/05/10 01:55:41;;;;;;;3.20;1.57;;;;;;;14.96;43.77;98914.31;5060586;28;20217;-79
2021/05/10 01:58:08;;;;;;;2.23;1.53;;;;;;;14.97;43.50;98917.84;5027460;28;20229;-79
2021/05/10 02:00:43;;;;;;;1.93;1.60;;;;;;;14.87;44.05;98899.72;5044047;28;20226;-82
2021/05/10 02:03:17;;;;;;;2.10;1.50;;;;;;;15.01;43.96;98921.63;5043286;28;20649;-79
2021/05/10 02:05:46;;;;;;;2.20;1.47;;;;;;;14.97;43.93;98912.44;5058760;28;20250;-85
2021/05/10 02:08:13;;;;;;;1.70;1.60;;;;;;;14.98;43.64;98908.66;5039364;28;20224;-81
2021/05/10 02:10:45;;;;;;;2.20;1.70;;;;;;;14.78;44.37;98892.41;5039799;28;20227;-82
2021/05/10 02:13:17;;;;;;;2.87;1.70;;;;;;;14.87;44.17;98897.03;5056241;28;20563;-83
2021/05/10 02:15:52;;;;;;;1.73;1.60;;;;;;;14.75;44.60;98898.31;5039422;28;20244;-81
2021/05/10 02:18:20;;;;;;;1.80;1.70;;;;;;;14.77;44.78;98897.00;5039337;28;20644;-80
2021/05/10 02:20:47;;;;;;;3.43;1.60;;;;;;;14.69;44.77;98877.81;5026162;28;20271;-83
2021/05/10 02:23:19;;;;;;;3.07;1.90;;;;;;;14.59;44.89;98880.47;5039422;28;20235;-81
2021/05/10 02:25:47;;;;;;;2.20;1.70;;;;;;;14.59;45.46;98885.88;5039824;28;20241;-83
2021/05/10 02:28:15;;;;;;;1.50;1.40;;;;;;;14.38;44.66;98868.78;5056527;28;20260;-79
2021/05/10 02:30:42;;;;;;;2.00;1.80;;;;;;;14.23;44.75;98861.41;5039340;28;20291;-80
2021/05/10 02:33:14;;;;;;;2.57;1.80;;;;;;;14.22;45.27;98877.84;5056865;28;20287;-79
2021/05/10 02:35:41;;;;;;;2.23;1.80;;;;;;;14.02;45.50;98878.53;5022445;28;20244;-82
2021/05/10 02:38:08;;;;;;;1.80;1.70;;;;;;;13.87;46.02;98891.88;5055571;28;20272;-81
2021/05/10 02:40:35;;;;;;;1.87;1.47;;;;;;;13.90;45.59;98886.00;5039228;28;20221;-79
2021/05/10 02:43:02;;;;;;;2.00;1.80;;;;;;;13.74;46.19;98879.69;5041036;28;20529;-80
2021/05/10 02:45:31;;;;;;;4.87;1.70;;;;;;;13.71;46.39;98898.25;5061449;28;20241;-80
2021/05/10 02:47:57;;;;;;;2.93;1.50;;;;;;;13.66;46.64;98907.91;5044385;28;20229;-79
2021/05/10 02:50:26;;;;;;;2.67;1.43;;;;;;;13.51;46.71;98899.69;5045558;28;20233;-81
2021/05/10 02:52:52;;;;;;;2.10;1.60;;;;;;;13.43;47.45;98913.63;5040747;28;20275;-80
2021/05/10 02:55:20;;;;;;;2.10;1.63;;;;;;;13.32;47.63;98903.00;5056612;28;20227;-80
2021/05/10 02:57:48;;;;;;;3.57;1.67;;;;;;;13.36;47.42;98910.31;5056595;28;20672;-79
2021/05/10 03:00:17;;;;;;;2.30;1.70;;;;;;;13.40;47.35;98897.16;5045541;28;20236;-81
2021/05/10 03:02:44;;;;;;;3.13;1.93;;;;;;;13.47;47.17;98900.47;5063088;28;20233;-79
2021/05/10 03:05:13;;;;;;;1.63;1.53;;;;;;;13.34;47.95;98909.78;5063916;28;20533;-81
2021/05/10 03:07:44;;;;;;;2.70;1.67;;;;;;;13.32;47.88;98906.50;5064588;28;20553;-80
2021/05/10 03:10:17;;;;;;;1.60;1.50;;;;;;;13.33;48.04;98908.13;5063197;28;20226;-80
2021/05/10 03:12:46;;;;;;;1.43;1.27;;;;;;;13.35;47.61;98905.19;5064420;28;20259;-80
2021/05/10 03:15:15;;;;;;;2.20;1.67;;;;;;;13.13;48.28;98902.56;5063524;28;20651;-80
2021/05/10 03:17:46;;;;;;;3.00;1.70;;;;;;;13.07;48.34;98885.50;5045561;28;20288;-79
2021/05/10 03:20:17;;;;;;;2.63;1.63;;;;;;;13.17;48.34;98896.41;5061637;28;20235;-79
2021/05/10 03:22:45;;;;;;;3.87;1.80;;;;;;;13.03;48.52;98880.91;5046279;28;20536;-81
2021/05/10 03:25:13;;;;;;;4.40;1.70;;;;;;;13.22;48.43;98890.25;5064363;28;20236;-78
2021/05/10 03:27:40;;;;;;;3.77;1.70;;;;;;;13.29;48.43;98884.69;5019723;28;20276;-80
2021/05/10 03:30:16;;;;;;;4.70;1.70;;;;;;;13.30;49.06;98887.09;5042792;28;20645;-79
2021/05/10 03:32:45;;;;;;;3.83;1.60;;;;;;;13.42;49.16;98884.28;5063211;28;20500;-80
2021/05/10 03:35:12;;;;;;;2.17;1.60;;;;;;;13.47;48.92;98884.31;5063781;28;20235;-78
2021/05/10 03:37:40;;;;;;;1.70;1.60;;;;;;;13.49;48.67;98890.25;5061792;28;20566;-81
2021/05/10 03:40:10;;;;;;;2.83;1.77;;;;;;;13.61;48.90;98901.66;5045729;28;20629;-80
2021/05/10 03:42:38;;;;;;;2.23;1.90;;;;;;;13.63;48.83;98897.63;5028359;28;20229;-80
2021/05/10 03:45:06;;;;;;;4.60;1.87;;;;;;;13.60;48.87;98890.06;5057401;28;20225;-80
2021/05/10 03:47:39;;;;;;;1.97;1.70;;;;;;;13.80;48.67;98908.28;5053915;28;20225;-79
2021/05/10 03:50:12;;;;;;;1.77;1.63;;;;;;;14.15;47.46;98918.47;5037361;28;20545;-81
2021/05/10 03:52:39;;;;;;;2.00;1.80;;;;;;;14.50;46.86;98920.59;5039326;28;20657;-81
2021/05/10 03:55:14;;;;;;;5.73;2.03;;;;;;;14.96;45.33;98914.31;5040564;28;20629;-79
2021/05/10 03:57:41;;;;;;;4.23;1.80;;;;;;;15.23;44.92;98908.72;5057342;28;20225;-80
2021/05/10 04:00:09;;;;;;;1.73;1.60;;;;;;;15.42;44.03;98944.94;5055983;28;20281;-81
2021/05/10 04:02:36;;;;;;;3.50;1.70;;;;;;;16.34;41.99;99037.66;5039056;28;20222;-81
2021/05/10 04:15:27;;;;;;;1.97;1.67;;;;;;;15.58;43.87;98882.88;5038078;28;20651;-78
2021/05/10 04:17:53;;;;;;;1.90;1.60;;;;;;;15.50;43.76;98877.97;5053768;28;20265;-79
2021/05/10 04:20:20;;;;;;;2.17;1.63;;;;;;;15.71;43.69;98902.06;5036925;28;20238;-80
2021/05/10 04:22:46;;;;;;;4.73;1.77;;;;;;;15.86;43.22;98893.94;5007551;28;20247;-85
2021/05/10 04:25:13;;;;;;;2.40;1.60;;;;;;;16.05;42.86;98880.66;5054919;28;20233;-84
2021/05/10 04:27:40;;;;;;;3.60;2.50;;;;;;;16.11;43.12;98876.88;5021675;28;20349;-80
2021/05/10 04:30:07;;;;;;;2.77;1.57;;;;;;;16.29;43.11;98868.19;5053324;28;20231;-82
2021/05/10 04:32:34;;;;;;;3.00;1.60;;;;;;;16.41;42.79;98881.41;5037149;28;20228;-80
2021/05/10 04:35:03;;;;;;;3.57;1.70;;;;;;;16.53;42.76;98878.38;5053388;28;20245;-84
2021/05/10 04:37:29;;;;;;;2.50;1.77;;;;;;;16.59;43.08;98878.13;5020671;28;20240;-83
2021/05/10 04:39:56;;;;;;;3.73;2.10;;;;;;;16.76;43.01;98882.38;5054547;28;20240;-81
2021/05/10 04:42:22;;;;;;;1.77;1.67;;;;;;;16.79;42.78;98884.53;5036794;28;20235;-84
2021/05/10 04:44:50;;;;;;;2.77;1.80;;;;;;;16.70;43.30;98881.59;5054623;28;20275;-81
2021/05/10 04:47:17;;;;;;;3.03;1.80;;;;;;;16.60;43.35;98893.28;5037148;28;20239;-81
2021/05/10 04:49:43;;;;;;;3.67;1.97;;;;;;;16.52;43.19;98901.91;5036756;28;20308;-81
2021/05/10 04:52:10;;;;;;;4.53;1.90;;;;;;;16.47;43.37;98895.72;5020131;28;20635;-82
2021/05/10 04:54:36;;;;;;;2.07;1.80;;;;;;;16.32;43.65;98888.47;5037126;28;20621;-83
2021/05/10 04:57:03;;;;;;;9.60;2.00;;;;;;;16.34;43.74;98890.88;5054413;28;20240;-84
2021/05/10 04:59:29;;;;;;;2.47;1.80;;;;;;;16.35;43.54;98903.31;5040186;28;20229;-83
2021/05/10 05:01:56;;;;;;;3.47;1.83;;;;;;;16.23;43.86;98898.22;5058748;28;20236;-80
2021/05/10 05:04:22;;;;;;;2.50;1.70;;;;;;;16.21;44.13;98905.78;5040406;28;20263;-78
2021/05/10 05:06:49;;;;;;;3.33;1.83;;;;;;;16.23;44.09;98917.94;5057478;28;20648;-81
2021/05/10 05:09:15;;;;;;;2.00;1.70;;;;;;;16.21;44.04;98903.88;5040390;28;20228;-81
2021/05/10 05:11:41;;;;;;;4.37;1.80;;;;;;;16.12;44.49;98896.59;5040898;28;20229;-82
2021/05/10 05:14:08;;;;;;;5.53;2.07;;;;;;;16.02;43.99;98883.09;5056605;28;20230;-81
2021/05/10 05:16:34;;;;;;;3.03;1.70;;;;;;;16.18;44.00;98890.94;5057381;28;20286;-82
2021/05/10 05:19:00;;;;;;;1.80;1.70;;;;;;;16.19;44.07;98889.03;5040366;28;20231;-83
2021/05/10 05:21:27;;;;;;;2.03;1.80;;;;;;;16.19;43.96;98900.63;5040715;28;20231;-84
2021/05/10 05:23:53;;;;;;;3.27;1.80;;;;;;;16.09;44.06;98894.47;5040751;28;20230;-80
2021/05/10 05:26:19;;;;;;;3.23;1.87;;;;;;;16.12;44.38;98883.09;5039974;28;20219;-82
2021/05/10 05:28:46;;;;;;;1.70;1.60;;;;;;;16.17;44.07;98892.00;5024194;28;20638;-83
2021/05/10 05:31:12;;;;;;;4.10;1.63;;;;;;;15.99;44.32;98870.97;5057024;28;20224;-80
2021/05/10 05:33:38;;;;;;;2.20;1.83;;;;;;;16.19;44.10;98895.22;5040207;28;20273;-84
2021/05/10 05:36:24;;;;;;;2.10;1.77;;;;;;;16.21;44.09;98889.56;5057016;28;20252;-83
2021/05/10 05:38:50;;;;;;;1.77;1.67;;;;;;;16.16;44.09;98892.28;5038802;28;20266;-82
2021/05/10 05:41:16;;;;;;;3.43;2.00;;;;;;;16.13;44.58;98893.63;5038768;28;20235;-81
2021/05/10 05:43:43;;;;;;;4.43;1.93;;;;;;;16.09;44.72;98906.09;5023776;28;20634;-80
2021/05/10 05:46:14;;;;;;;2.90;2.17;;;;;;;16.20;44.82;98912.25;5040353;28;20228;-80
2021/05/10 05:48:41;;;;;;;4.07;2.20;;;;;;;16.27;44.67;98932.53;5024066;28;20235;-83
2021/05/10 05:51:11;;;;;;;2.20;1.87;;;;;;;16.28;44.91;98928.72;5023989;28;20232;-83
2021/05/10 05:53:38;;;;;;;2.23;1.80;;;;;;;16.35;44.85;98936.56;5040439;28;20507;-85
2021/05/10 05:56:05;;;;;;;2.97;2.00;;;;;;;16.22;45.51;98937.13;5039931;28;20232;-81
2021/05/10 05:58:31;;;;;;;2.20;2.00;;;;;;;16.07;45.36;98932.56;5056986;28;20224;-83
2021/05/10 06:01:00;;;;;;;2.87;1.70;;;;;;;16.10;45.31;98931.19;5036835;28;20495;-83
2021/05/10 06:03:27;;;;;;;3.33;1.97;;;;;;;16.12;45.53;98937.13;5020692;28;20518;-85
2021/05/10 06:05:53;;;;;;;2.97;1.80;;;;;;;16.07;45.68;98921.75;5036480;28;20237;-82
2021/05/10 06:08:20;;;;;;;2.57;1.87;;;;;;;16.00;46.21;98921.22;5019744;28;20225;-84
2021/05/10 06:10:48;;;;;;;2.50;1.77;;;;;;;15.96;46.17;98935.53;5019254;28;20226;-83
2021/05/10 06:13:14;;;;;;;5.33;1.80;;;;;;;15.79;46.78;98933.91;5036683;28;20256;-82
2021/05/10 06:15:41;;;;;;;3.43;1.90;;;;;;;15.85;46.80;98950.94;5052509;28;20248;-83
2021/05/10 06:18:09;;;;;;;3.17;1.90;;;;;;;15.88;46.99;98950.38;5023036;28;20224;-84
2021/05/10 06:20:35;;;;;;;4.43;1.83;;;;;;;15.98;47.28;98961.19;5039988;28;20233;-85
2021/05/10 06:23:02;;;;;;;2.03;1.90;;;;;;;16.10;47.01;98952.81;5039822;28;20227;-84
2021/05/10 06:25:29;;;;;;;4.13;1.90;;;;;;;16.06;47.17;98944.44;5055944;28;20251;-85
2021/05/10 06:27:56;;;;;;;3.20;1.80;;;;;;;16.33;46.53;98949.53;5057206;28;20250;-82
2021/05/10 06:30:22;;;;;;;4.23;2.27;;;;;;;16.66;46.08;98940.00;5039043;28;20663;-85
2021/05/10 06:32:53;;;;;;;2.20;1.80;;;;;;;16.90;46.79;98937.50;5055982;28;20237;-82
2021/05/10 06:35:20;;;;;;;5.13;2.00;;;;;;;17.24;46.02;98943.00;5019227;28;21022;-81
2021/05/10 06:37:47;;;;;;;3.70;1.73;;;;;;;17.58;44.75;98942.03;5036780;28;20233;-83
2021/05/10 06:40:13;;;;;;;2.10;1.60;;;;;;;17.84;43.88;98933.69;5014800;28;20227;-82
2021/05/10 06:42:40;;;;;;;1.90;1.70;;;;;;;18.03;43.39;98948.16;5022121;28;20312;-84
2021/05/10 06:45:08;;;;;;;1.80;1.70;;;;;;;18.09;43.29;98940.81;5055434;28;20225;-79
2021/05/10 06:47:38;;;;;;;2.77;2.03;;;;;;;18.20;43.03;98935.00;5038619;28;20232;-79
2021/05/10 06:50:05;;;;;;;1.97;1.67;;;;;;;18.51;43.30;98949.06;5054287;28;20230;-83
2021/05/10 06:52:34;;;;;;;2.60;1.70;;;;;;;18.70;43.45;98938.31;5054591;28;20229;-81
2021/05/10 06:55:01;;;;;;;5.20;1.70;;;;;;;18.88;42.76;98932.94;5053970;28;20225;-83
2021/05/10 06:57:28;;;;;;;2.47;1.83;;;;;;;19.06;42.57;98944.91;5037905;28;20218;-80
2021/05/10 06:59:54;;;;;;;2.10;1.90;;;;;;;19.21;42.54;98947.44;5038616;28;20225;-83
2021/05/10 07:02:22;;;;;;;3.73;1.80;;;;;;;19.42;42.18;98944.41;5038223;28;20229;-80
2021/05/10 07:04:50;;;;;;;2.97;1.93;;;;;;;19.65;41.28;98944.38;5038356;28;20229;-80
2021/05/10 07:07:16;;;;;;;2.30;1.90;;;;;;;19.91;40.67;98947.50;5038764;28;20533;-81
2021/05/10 07:09:43;;;;;;;3.90;2.00;;;;;;;20.17;40.52;98959.56;5055066;28;20233;-80
2021/05/10 07:12:12;;;;;;;3.07;1.80;;;;;;;20.26;40.36;98939.81;5037935;28;20233;-80
2021/05/10 07:14:40;;;;;;;2.50;2.07;;;;;;;20.40;39.77;98948.84;5054990;28;20237;-80
2021/05/10 07:17:07;;;;;;;3.10;1.80;;;;;;;20.40;40.10;98948.84;5054877;28;20225;-79
2021/05/10 07:19:34;;;;;;;4.53;2.03;;;;;;;20.44;39.73;98936.25;5038463;28;20233;-83
2021/05/10 07:22:01;;;;;;;4.50;1.70;;;;;;;20.52;40.50;98943.75;5033956;28;20234;-82
2021/05/10 07:24:27;;;;;;;3.93;1.70;;;;;;;20.64;40.09;98950.28;5038148;28;20662;-84
2021/05/10 07:26:55;;;;;;;3.37;2.20;;;;;;;20.66;39.98;98950.00;5037976;28;20770;-80
2021/05/10 07:29:22;;;;;;;2.60;1.80;;;;;;;20.74;39.88;98951.22;5037459;28;20279;-81
2021/05/10 07:31:48;;;;;;;3.07;2.00;;;;;;;20.90;40.32;98956.03;5037169;28;20522;-79
2021/05/10 07:34:15;;;;;;;3.63;2.03;;;;;;;20.85;39.78;98941.75;5037332;28;20253;-80
2021/05/10 07:36:41;;;;;;;4.77;2.00;;;;;;;20.91;39.36;98941.31;5037617;28;20236;-82
2021/05/10 07:39:07;;;;;;;3.27;1.90;;;;;;;20.99;39.17;98946.06;5036487;28;20252;-84
2021/05/10 07:41:33;;;;;;;5.43;1.77;;;;;;;21.04;39.57;98945.16;5020126;28;20226;-84
2021/05/10 07:44:01;;;;;;;4.27;1.70;;;;;;;21.15;39.17;98973.81;5053155;28;20695;-82
2021/05/10 07:46:28;;;;;;;2.10;1.87;;;;;;;21.09;39.23;98961.38;5036258;28;20231;-80
2021/05/10 07:48:54;;;;;;;3.43;2.10;;;;;;;21.13;38.89;98967.03;5036663;28;20233;-83
2021/05/10 07:51:20;;;;;;;5.37;1.70;;;;;;;21.23;39.52;98964.91;5036452;28;20383;-80
2021/05/10 07:53:47;;;;;;;5.07;1.80;;;;;;;21.37;39.79;98959.47;5036376;28;20236;-82
2021/05/10 07:56:14;;;;;;;2.77;1.97;;;;;;;21.61;39.38;98962.69;5036367;28;20231;-81
2021/05/10 07:58:44;;;;;;;3.93;2.10;;;;;;;21.67;39.35;98960.66;5036506;28;20226;-80
2021/05/10 08:01:10;;;;;;;2.23;1.73;;;;;;;21.77;39.43;98941.34;5036294;28;20227;-79
2021/05/10 08:03:39;;;;;;;3.63;1.80;;;;;;;22.03;39.76;98955.19;5036538;28;20223;-80
2021/05/10 08:06:05;;;;;;;2.50;2.10;;;;;;;22.11;39.61;98928.00;5052604;28;20227;-80
2021/05/10 08:08:31;;;;;;;7.20;2.10;;;;;;;22.28;38.88;98939.00;5037482;28;20563;-81
2021/05/10 08:11:01;;;;;;;3.17;1.90;;;;;;;22.43;38.21;98935.06;5020860;28;20230;-80
2021/05/10 08:13:28;;;;;;;4.17;1.97;;;;;;;22.46;38.17;98930.88;5037356;28;20248;-79
2021/05/10 08:15:54;;;;;;;2.27;1.80;;;;;;;22.53;38.34;98932.06;5054123;28;20280;-80
2021/05/10 08:18:20;;;;;;;2.97;1.90;;;;;;;22.74;38.61;98938.59;5036902;28;20231;-82
2021/05/10 08:20:47;;;;;;;2.70;1.90;;;;;;;22.88;38.56;98929.47;5037110;28;20227;-83
2021/05/10 08:23:13;;;;;;;2.67;1.73;;;;;;;23.12;37.54;98925.22;5052578;28;20305;-81
2021/05/10 08:25:42;;;;;;;5.33;2.20;;;;;;;23.40;37.73;98933.91;5037487;28;20245;-81
2021/05/10 08:28:09;;;;;;;4.07;2.20;;;;;;;23.57;37.13;98916.75;5053923;28;20274;-83
2021/05/10 08:30:36;;;;;;;5.03;2.50;;;;;;;23.68;37.23;98907.09;5036974;28;20292;-81
2021/05/10 08:33:02;;;;;;;3.47;1.90;;;;;;;24.04;36.89;98917.66;5035266;28;20231;-82
2021/05/10 08:35:29;;;;;;;5.22;1.98;;;;;;;24.29;35.99;98908.63;5035366;28;20631;-80
2021/05/10 08:38:00;;;;;;;2.80;1.80;;;;;;;24.63;35.37;98912.38;5052858;28;20328;-83
2021/05/10 08:40:27;;;;;;;4.57;2.03;;;;;;;24.99;35.82;98921.72;5052758;28;20235;-82
2021/05/10 08:42:53;;;;;;;4.78;2.20;;;;;;;25.35;34.12;98917.59;5036276;28;20229;-82
2021/05/10 08:45:22;;;;;;;2.78;1.88;;;;;;;25.59;33.17;98917.75;5036660;28;20243;-81
2021/05/10 08:47:52;;;;;;;3.20;2.00;;;;;;;25.69;33.04;98914.63;5036236;28;20221;-82
2021/05/10 08:50:19;;;;;;;5.18;2.10;;;;;;;25.80;33.02;98926.00;5035640;28;20234;-82
2021/05/10 08:52:45;;;;;;;5.70;2.15;;;;;;;25.89;32.06;98921.22;5020251;28;20221;-81
2021/05/10 08:55:16;;;;;;;10.65;1.90;;;;;;;26.06;32.20;98920.25;5036345;28;20240;-83
2021/05/10 08:57:42;;;;;;;5.10;1.95;;;;;;;26.11;31.67;98920.03;5053136;28;20230;-83
2021/05/10 09:00:16;;;;;;;3.83;1.75;;;;;;;25.92;32.04;98906.81;5036160;28;20228;-82
2021/05/10 09:02:42;;;;;;;9.00;2.00;;;;;;;26.04;31.54;98906.84;5036316;28;20224;-81
2021/05/10 09:05:20;;;;;;;2.35;1.83;;;;;;;26.11;33.12;98906.31;5036409;28;20243;-82
2021/05/10 09:08:05;;;;;;;3.63;1.90;;;;;;;25.93;33.37;98896.66;5036142;28;20239;-80
2021/05/10 09:10:32;;;;;;;3.83;1.70;;;;;;;26.01;33.06;98910.28;5019714;28;20530;-82
2021/05/10 09:12:59;;;;;;;5.32;2.00;;;;;;;25.96;33.35;98894.03;5052603;28;20274;-83
2021/05/10 09:15:30;;;;;;;5.13;1.80;;;;;;;26.04;33.18;98906.84;5036671;28;20236;-83
2021/05/10 09:18:05;;;;;;;3.42;2.08;;;;;;;26.06;32.37;98910.06;5036312;28;20306;-79
2021/05/10 09:20:36;;;;;;;4.45;2.00;;;;;;;26.15;32.94;98912.72;5035803;28;20236;-80
2021/05/10 09:23:13;;;;;;;3.47;1.73;;;;;;;26.18;32.69;98910.09;5036446;28;20585;-81
2021/05/10 09:25:42;;;;;;;3.28;2.03;;;;;;;26.21;32.17;98903.16;5052104;28;20225;-83
2021/05/10 09:28:10;;;;;;;2.97;1.77;;;;;;;26.17;32.27;98894.78;5052053;28;20225;-81
2021/05/10 09:30:40;;;;;;;4.40;1.90;;;;;;;26.33;32.67;98905.91;5036344;28;20236;-82
2021/05/10 09:33:14;;;;;;;4.35;2.00;;;;;;;26.46;31.43;98909.47;5016885;28;20229;-82
2021/05/10 09:35:41;;;;;;;4.22;1.73;;;;;;;26.52;31.65;98911.66;5016738;28;20315;-83
2021/05/10 09:38:08;;;;;;;3.15;1.75;;;;;;;26.57;30.63;98914.19;5040528;28;20276;-80
2021/05/10 09:40:40;;;;;;;2.78;1.83;;;;;;;26.65;31.03;98910.53;5053080;28;20243;-83
2021/05/10 09:43:08;;;;;;;4.85;1.70;;;;;;;26.85;30.56;98919.00;5036197;28;20259;-81
2021/05/10 09:45:38;;;;;;;4.03;1.80;;;;;;;26.94;30.14;98925.22;5038248;28;20507;-84
2021/05/10 09:48:12;;;;;;;3.53;2.00;;;;;;;27.05;29.32;98921.69;5057119;28;20233;-82
2021/05/10 09:50:49;;;;;;;11.40;2.40;;;;;;;27.07;30.74;98924.88;5040006;28;20483;-83
2021/05/10 09:53:32;;;;;;;2.53;1.92;;;;;;;27.21;30.15;98920.94;5056730;28;20315;-82
2021/05/10 09:55:59;;;;;;;3.53;1.80;;;;;;;27.25;29.38;98906.16;5022562;28;20236;-82
2021/05/10 09:58:46;;;;;;;2.63;1.85;;;;;;;27.43;29.62;98904.75;5039363;28;20229;-82
2021/05/10 10:01:18;;;;;;;6.18;2.55;;;;;;;27.43;29.79;98903.97;5040807;28;20236;-83
2021/05/10 10:03:46;;;;;;;3.30;1.85;;;;;;;27.52;29.07;98919.22;5025686;28;20295;-81
2021/05/10 10:06:19;;;;;;;3.35;1.83;;;;;;;27.53;29.01;98914.47;5038973;28;20229;-82
2021/05/10 10:08:47;;;;;;;4.28;2.03;;;;;;;27.55;28.92;98920.44;5037877;28;20228;-83
2021/05/10 10:11:22;;;;;;;3.35;1.73;;;;;;;27.56;28.76;98902.81;5019226;28;20222;-82
2021/05/10 10:13:50;;;;;;;4.50;1.83;;;;;;;27.67;29.53;98911.38;5037928;28;20227;-83
2021/05/10 10:16:21;;;;;;;3.47;2.10;;;;;;;27.77;29.91;98910.84;5037316;28;20341;-83
2021/05/10 10:18:49;;;;;;;3.67;1.90;;;;;;;27.78;28.54;98917.97;5021228;28;20217;-81
2021/05/10 10:21:17;;;;;;;5.07;1.90;;;;;;;27.77;28.53;98919.09;5038929;28;20226;-81
2021/05/10 10:23:52;;;;;;;5.35;2.10;;;;;;;27.84;28.08;98930.34;5055879;28;20225;-83
2021/05/10 10:26:39;;;;;;;2.53;2.00;;;;;;;27.79;28.03;98919.56;5039517;28;20228;-82
2021/05/10 10:29:08;;;;;;;2.45;1.80;;;;;;;27.82;28.22;98918.84;5055160;28;20229;-82
2021/05/10 10:31:44;;;;;;;2.83;1.85;;;;;;;27.89;28.12;98914.38;5039185;28;20256;-82
2021/05/10 10:34:32;;;;;;;3.67;1.80;;;;;;;27.87;28.99;98900.16;5022713;28;20255;-80
2021/05/10 10:37:00;;;;;;;3.75;1.75;;;;;;;28.08;28.67;98901.88;5023630;28;20229;-82
2021/05/10 10:39:32;;;;;;;5.80;1.85;;;;;;;28.04;28.23;98899.03;5019213;28;20250;-81
2021/05/10 10:42:18;;;;;;;3.58;1.98;;;;;;;28.05;28.20;98900.63;5035896;28;20249;-83
2021/05/10 10:44:54;;;;;;;4.10;2.00;;;;;;;28.16;29.38;98915.53;5031195;28;20236;-83
2021/05/10 10:47:45;;;;;;;3.97;1.73;;;;;;;28.35;28.31;98901.06;5038685;28;20312;-82
2021/05/10 10:50:14;;;;;;;2.55;1.75;;;;;;;28.41;27.81;98894.94;5036873;28;20589;-80
2021/05/10 10:53:01;;;;;;;2.42;1.80;;;;;;;28.74;27.33;98900.09;5038207;28;20228;-83
2021/05/10 10:55:45;;;;;;;4.25;1.80;;;;;;;28.66;27.63;98887.28;5038682;28;20688;-83
2021/05/10 10:58:11;;;;;;;2.40;1.63;;;;;;;28.83;26.83;98895.22;5054614;28;20225;-79
2021/05/10 11:01:19;;;;;;;3.80;2.15;;;;;;;28.83;26.83;98895.22;5038799;28;20648;-83
2021/05/10 11:03:47;;;;;;;2.33;2.00;;;;;;;29.23;26.94;98896.91;5055025;28;20633;-83
2021/05/10 11:06:14;;;;;;;4.15;1.92;;;;;;;29.35;26.88;98894.03;5038512;28;20237;-82
2021/05/10 11:08:50;;;;;;;2.80;2.17;;;;;;;29.36;26.64;98889.31;5055158;28;20234;-80
2021/05/10 11:11:26;;;;;;;3.60;1.90;;;;;;;29.52;27.41;98884.53;5036046;28;20230;-82
2021/05/10 11:13:53;;;;;;;2.20;2.00;;;;;;;29.51;26.71;98860.88;5036589;28;20527;-83
2021/05/10 11:16:47;;;;;;;4.47;2.13;;;;;;;29.53;27.40;98877.88;5021243;28;20224;-80
2021/05/10 11:19:30;;;;;;;3.13;1.80;;;;;;;29.66;26.72;98877.34;5021436;28;20526;-80
2021/05/10 11:21:58;;;;;;;4.30;1.80;;;;;;;29.59;26.24;98865.34;5034527;28;20236;-80
2021/05/10 11:24:29;;;;;;;5.88;1.95;;;;;;;29.63;25.74;98877.28;5034798;28;20549;-80
2021/05/10 11:26:59;;;;;;;3.58;1.73;;;;;;;29.51;26.69;98867.19;5035518;28;20236;-80
2021/05/10 11:29:25;;;;;;;3.58;1.77;;;;;;;29.64;25.35;98876.09;5051044;28;20502;-80
2021/05/10 11:32:10;;;;;;;2.08;1.70;;;;;;;29.73;24.97;98873.91;5054369;28;20229;-80
2021/05/10 11:34:38;;;;;;;2.17;1.60;;;;;;;29.67;25.20;98870.69;5051912;28;20217;-81
2021/05/10 11:37:06;;;;;;;3.47;1.70;;;;;;;29.69;24.63;98862.81;5054675;28;20225;-81
2021/05/10 11:39:38;;;;;;;6.10;1.83;;;;;;;29.71;24.92;98859.69;5036784;28;20218;-80
2021/05/10 11:42:06;;;;;;;3.47;2.10;;;;;;;29.81;24.32;98855.56;5036591;28;20229;-80
2021/05/10 11:44:35;;;;;;;1.98;1.60;;;;;;;29.79;24.17;98847.63;5053837;28;20225;-80
2021/05/10 11:47:05;;;;;;;4.60;1.77;;;;;;;29.61;25.16;98843.72;5037940;28;20231;-81
2021/05/10 11:49:32;;;;;;;5.05;1.85;;;;;;;29.65;24.99;98834.34;5036522;28;20228;-80
2021/05/10 11:52:20;;;;;;;2.30;1.55;;;;;;;29.46;24.73;98844.59;5021184;28;20233;-81